Time,TemperatureF,DewpointF,PressureIn,WindDirection,WindDirectionDegrees,WindSpeedMPH,WindSpeedGustMPH,Humidity,HourlyPrecipIn,Conditions,Clouds,dailyrainin,SolarRadiationWatts/m^2,SoftwareType,DateUTC
2013-05-22 00:00:00,73.8,71.3,29.88,SSE,165,0.0,0.0,92,0.00,,,0.00,0,Wunderground v.1.15,2013-05-22 05:00:00,
2013-05-22 00:05:00,73.8,71.3,29.88,SSE,165,0.0,0.0,92,0.00,,,0.00,0,Wunderground v.1.15,2013-05-22 05:05:00,
2013-05-22 00:11:00,73.7,71.2,29.88,SSE,165,0.0,0.0,92,0.00,,,0.00,0,Wunderground v.1.15,2013-05-22 05:11:00,
2013-05-22 00:17:00,73.7,71.5,29.88,SSE,165,0.0,0.0,93,0.00,,,0.00,0,Wunderground v.1.15,2013-05-22 05:17:00,
2013-05-22 00:23:00,73.6,71.4,29.87,SSE,165,0.0,0.0,93,0.00,,,0.00,0,Wunderground v.1.15,2013-05-22 05:23:00,
2013-05-22 00:28:00,73.5,71.4,29.87,SSE,165,0.0,0.0,93,0.00,,,0.00,0,Wunderground v.1.15,2013-05-22 05:28:00,
2013-05-22 00:33:00,73.5,71.4,29.88,SSE,165,0.0,0.0,93,0.00,,,0.00,0,Wunderground v.1.15,2013-05-22 05:33:00,
2013-05-22 00:39:00,73.4,71.3,29.88,SSE,165,0.0,0.0,93,0.00,,,0.00,0,Wunderground v.1.15,2013-05-22 05:39:00,
2013-05-22 00:44:00,73.4,71.3,29.89,SSE,165,0.0,0.0,93,0.00,,,0.00,0,Wunderground v.1.15,2013-05-22 05:44:00,
2013-05-22 00:49:00,73.4,71.3,29.89,SSE,165,0.0,0.0,93,0.00,,,0.00,0,Wunderground v.1.15,2013-05-22 05:49:00,
2013-05-22 00:54:00,73.3,71.2,29.88,SSE,164,0.0,0.0,93,0.00,,,0.00,0,Wunderground v.1.15,2013-05-22 05:54:00,
2013-05-22 00:59:00,73.3,71.2,29.88,SSE,163,0.0,0.0,93,0.00,,,0.00,0,Wunderground v.1.15,2013-05-22 05:59:00,
2013-05-22 01:05:00,73.3,71.2,29.88,SSE,163,0.0,0.0,93,0.00,,,0.00,0,Wunderground v.1.15,2013-05-22 06:05:00,
2013-05-22 01:10:00,73.2,71.4,29.87,SSE,162,0.0,4.0,94,0.00,,,0.00,0,Wunderground v.1.15,2013-05-22 06:10:00,
2013-05-22 01:16:00,73.1,71.3,29.87,SSE,162,0.0,0.0,94,0.00,,,0.00,0,Wunderground v.1.15,2013-05-22 06:16:00,
2013-05-22 01:21:00,73.1,71.3,29.87,SSE,162,0.0,0.0,94,0.00,,,0.00,0,Wunderground v.1.15,2013-05-22 06:21:00,
2013-05-22 01:26:00,73.0,71.2,29.86,SSE,162,0.0,0.0,94,0.00,,,0.00,0,Wunderground v.1.15,2013-05-22 06:26:00,
2013-05-22 01:32:00,72.9,71.1,29.86,SSE,163,0.0,0.0,94,0.00,,,0.00,0,Wunderground v.1.15,2013-05-22 06:32:00,
2013-05-22 01:37:00,72.9,71.1,29.86,SSE,163,0.0,0.0,94,0.00,,,0.00,0,Wunderground v.1.15,2013-05-22 06:37:00,
2013-05-22 01:42:00,72.9,71.1,29.85,SE,144,0.0,1.0,94,0.00,,,0.00,0,Wunderground v.1.15,2013-05-22 06:42:00,
2013-05-22 01:47:00,72.8,71.3,29.85,SE,137,0.0,1.0,95,0.00,,,0.00,0,Wunderground v.1.15,2013-05-22 06:47:00,
2013-05-22 01:53:00,72.8,71.0,29.85,South,187,0.0,0.0,94,0.00,,,0.00,0,Wunderground v.1.15,2013-05-22 06:53:00,
2013-05-22 01:58:00,72.8,71.0,29.85,South,183,0.0,0.0,94,0.00,,,0.00,0,Wunderground v.1.15,2013-05-22 06:58:00,
2013-05-22 02:03:00,72.8,71.0,29.85,South,176,0.0,3.0,94,0.00,,,0.00,0,Wunderground v.1.15,2013-05-22 07:03:00,
2013-05-22 02:09:00,72.7,70.9,29.85,South,188,0.0,3.0,94,0.00,,,0.00,0,Wunderground v.1.15,2013-05-22 07:09:00,
2013-05-22 02:14:00,72.7,70.9,29.85,South,184,0.0,4.0,94,0.00,,,0.00,0,Wunderground v.1.15,2013-05-22 07:14:00,
2013-05-22 02:19:00,72.7,71.2,29.85,South,184,0.0,4.0,95,0.00,,,0.00,0,Wunderground v.1.15,2013-05-22 07:19:00,
2013-05-22 02:26:00,72.6,71.1,29.85,South,184,0.0,0.0,95,0.00,,,0.00,0,Wunderground v.1.15,2013-05-22 07:26:00,
2013-05-22 02:32:00,72.6,71.1,29.86,South,184,0.0,0.0,95,0.00,,,0.00,0,Wunderground v.1.15,2013-05-22 07:32:00,
2013-05-22 02:38:00,72.7,71.2,29.86,South,184,0.0,0.0,95,0.00,,,0.00,0,Wunderground v.1.15,2013-05-22 07:38:00,
2013-05-22 02:45:00,72.7,71.2,29.86,South,184,0.0,0.0,95,0.00,,,0.00,0,Wunderground v.1.15,2013-05-22 07:45:00,
2013-05-22 02:52:00,72.8,71.3,29.87,South,184,0.0,0.0,95,0.00,,,0.00,0,Wunderground v.1.15,2013-05-22 07:52:00,
2013-05-22 02:58:00,72.8,71.3,29.86,NNW,339,0.0,4.0,95,0.00,,,0.00,0,Wunderground v.1.15,2013-05-22 07:58:00,
2013-05-22 03:03:00,72.0,68.2,29.87,NNW,334,1.0,11.0,88,0.00,,,0.00,0,Wunderground v.1.15,2013-05-22 08:03:00,
2013-05-22 03:10:00,71.0,66.6,29.87,NE,34,3.0,3.0,86,0.00,,,0.00,0,Wunderground v.1.15,2013-05-22 08:10:00,
2013-05-22 03:15:00,70.6,66.2,29.87,NNW,333,2.0,4.0,86,0.00,,,0.00,0,Wunderground v.1.15,2013-05-22 08:15:00,
2013-05-22 03:20:00,70.3,65.6,29.88,NNW,334,3.0,7.0,85,0.00,,,0.00,0,Wunderground v.1.15,2013-05-22 08:20:00,
2013-05-22 03:25:00,70.1,65.4,29.89,NNW,331,4.0,7.0,85,0.00,,,0.00,0,Wunderground v.1.15,2013-05-22 08:25:00,
2013-05-22 03:30:00,69.9,65.2,29.89,North,350,3.0,3.0,85,0.00,,,0.00,0,Wunderground v.1.15,2013-05-22 08:30:00,
2013-05-22 03:36:00,69.7,65.3,29.90,NNW,329,1.0,3.0,86,0.00,,,0.00,0,Wunderground v.1.15,2013-05-22 08:36:00,
2013-05-22 03:41:00,69.3,65.6,29.91,NNE,15,1.0,1.0,88,0.00,,,0.02,0,Wunderground v.1.15,2013-05-22 08:41:00,
2013-05-22 03:47:00,68.6,65.5,29.91,NNE,15,0.0,1.0,90,6.78,,,0.18,0,Wunderground v.1.15,2013-05-22 08:47:00,
2013-05-22 03:52:00,68.0,65.6,29.91,North,359,0.0,0.0,92,2.36,,,0.43,0,Wunderground v.1.15,2013-05-22 08:52:00,
2013-05-22 03:57:00,67.4,65.6,29.89,North,5,0.0,0.0,94,1.40,,,0.51,0,Wunderground v.1.15,2013-05-22 08:57:00,
2013-05-22 04:02:00,67.0,65.5,29.88,NNE,15,0.0,0.0,95,1.10,,,0.59,0,Wunderground v.1.15,2013-05-22 09:02:00,
2013-05-22 04:08:00,66.8,65.3,29.89,NNE,15,0.0,3.0,95,0.74,,,0.68,0,Wunderground v.1.15,2013-05-22 09:08:00,
2013-05-22 04:13:00,66.7,65.5,29.89,NNE,15,0.0,0.0,96,1.80,,,0.78,0,Wunderground v.1.15,2013-05-22 09:13:00,
2013-05-22 04:18:00,66.5,65.3,29.88,NNE,15,0.0,1.0,96,0.50,,,0.85,0,Wunderground v.1.15,2013-05-22 09:18:00,
2013-05-22 04:23:00,66.4,65.2,29.87,NNE,27,0.0,0.0,96,0.22,,,0.87,0,Wunderground v.1.15,2013-05-22 09:23:00,
2013-05-22 04:29:00,66.4,65.2,29.88,NNE,27,0.0,0.0,96,0.11,,,0.88,0,Wunderground v.1.15,2013-05-22 09:29:00,
2013-05-22 04:34:00,66.3,65.1,29.87,NNE,33,0.0,0.0,96,0.10,,,0.89,0,Wunderground v.1.15,2013-05-22 09:34:00,
2013-05-22 04:39:00,66.3,65.1,29.88,NE,39,0.0,0.0,96,0.08,,,0.90,0,Wunderground v.1.15,2013-05-22 09:39:00,
2013-05-22 04:44:00,66.3,65.4,29.88,NE,38,0.0,0.0,97,0.33,,,0.92,0,Wunderground v.1.15,2013-05-22 09:44:00,
2013-05-22 04:49:00,66.3,65.4,29.89,NE,38,0.0,0.0,97,0.19,,,0.94,0,Wunderground v.1.15,2013-05-22 09:49:00,
2013-05-22 04:55:00,66.3,65.4,29.89,NNE,25,0.0,3.0,97,0.23,,,0.96,0,Wunderground v.1.15,2013-05-22 09:55:00,
2013-05-22 05:00:00,66.3,65.4,29.89,NNE,23,0.0,0.0,97,0.22,,,0.98,0,Wunderground v.1.15,2013-05-22 10:00:00,
2013-05-22 05:05:00,66.3,65.4,29.89,NNE,15,0.0,3.0,97,0.18,,,1.00,0,Wunderground v.1.15,2013-05-22 10:05:00,
2013-05-22 05:10:00,66.3,65.4,29.91,NNE,15,0.0,0.0,97,0.49,,,1.02,0,Wunderground v.1.15,2013-05-22 10:10:00,
2013-05-22 05:16:00,66.3,65.4,29.91,NNE,15,0.0,0.0,97,0.46,,,1.06,0,Wunderground v.1.15,2013-05-22 10:16:00,
2013-05-22 05:21:00,66.3,65.4,29.90,NNE,15,0.0,0.0,97,0.77,,,1.12,0,Wunderground v.1.15,2013-05-22 10:21:00,
2013-05-22 05:26:00,66.2,65.3,29.88,NE,44,0.0,5.0,97,0.68,,,1.18,0,Wunderground v.1.15,2013-05-22 10:26:00,
2013-05-22 05:31:00,66.1,65.2,29.87,NE,44,1.0,1.0,97,0.32,,,1.22,0,Wunderground v.1.15,2013-05-22 10:31:00,
2013-05-22 05:36:00,66.1,65.2,29.87,NE,40,1.0,1.0,97,0.15,,,1.23,0,Wunderground v.1.15,2013-05-22 10:36:00,
2013-05-22 05:41:00,66.1,65.2,29.89,SE,133,0.0,0.0,97,0.14,,,1.25,0,Wunderground v.1.15,2013-05-22 10:41:00,
2013-05-22 05:47:00,66.1,65.2,29.90,ESE,118,0.0,0.0,97,0.42,,,1.27,0,Wunderground v.1.15,2013-05-22 10:47:00,
2013-05-22 05:52:00,65.9,65.0,29.90,East,84,0.0,1.0,97,0.35,,,1.31,0,Wunderground v.1.15,2013-05-22 10:52:00,
2013-05-22 05:57:00,65.9,65.0,29.91,East,84,0.0,1.0,97,0.34,,,1.34,0,Wunderground v.1.15,2013-05-22 10:57:00,
2013-05-22 06:02:00,65.8,64.9,29.92,East,84,0.0,0.0,97,0.35,,,1.36,0,Wunderground v.1.15,2013-05-22 11:02:00,
2013-05-22 06:07:00,65.8,64.9,29.92,East,84,0.0,0.0,97,0.31,,,1.38,0,Wunderground v.1.15,2013-05-22 11:07:00,
2013-05-22 06:13:00,65.8,65.2,29.92,East,84,0.0,0.0,98,0.34,,,1.42,0,Wunderground v.1.15,2013-05-22 11:13:00,
2013-05-22 06:18:00,65.8,65.2,29.92,East,84,0.0,0.0,98,0.18,,,1.43,0,Wunderground v.1.15,2013-05-22 11:18:00,
2013-05-22 06:23:00,65.8,64.9,29.92,East,84,0.0,0.0,97,0.20,,,1.45,0,Wunderground v.1.15,2013-05-22 11:23:00,
2013-05-22 06:29:00,65.8,64.9,29.93,East,84,0.0,0.0,97,0.21,,,1.47,0,Wunderground v.1.15,2013-05-22 11:29:00,
2013-05-22 06:35:00,65.9,65.3,29.93,East,84,0.0,0.0,98,0.12,,,1.49,0,Wunderground v.1.15,2013-05-22 11:35:00,
2013-05-22 06:40:00,65.9,65.3,29.92,East,84,0.0,0.0,98,0.20,,,1.50,0,Wunderground v.1.15,2013-05-22 11:40:00,
2013-05-22 06:45:00,65.9,65.3,29.92,East,85,0.0,0.0,98,0.24,,,1.53,0,Wunderground v.1.15,2013-05-22 11:45:00,
2013-05-22 06:51:00,65.8,64.9,29.91,East,88,0.0,0.0,97,0.42,,,1.56,0,Wunderground v.1.15,2013-05-22 11:51:00,
2013-05-22 06:56:00,65.7,64.8,29.90,ESE,122,0.0,0.0,97,0.23,,,1.59,0,Wunderground v.1.15,2013-05-22 11:56:00,
2013-05-22 07:02:00,65.7,65.1,29.90,SE,131,0.0,0.0,98,0.22,,,1.61,0,Wunderground v.1.15,2013-05-22 12:02:00,
2013-05-22 07:07:00,65.8,65.2,29.91,SE,126,0.0,0.0,98,0.20,,,1.63,0,Wunderground v.1.15,2013-05-22 12:07:00,
2013-05-22 07:12:00,65.7,65.1,29.91,SE,126,0.0,0.0,98,0.19,,,1.65,0,Wunderground v.1.15,2013-05-22 12:12:00,
2013-05-22 07:18:00,65.7,65.1,29.91,SE,138,0.0,0.0,98,0.26,,,1.67,0,Wunderground v.1.15,2013-05-22 12:18:00,
2013-05-22 07:23:00,65.8,65.2,29.90,SE,140,0.0,0.0,98,0.27,,,1.70,0,Wunderground v.1.15,2013-05-22 12:23:00,
2013-05-22 07:28:00,65.8,65.2,29.89,East,101,1.0,5.0,98,0.32,,,1.72,0,Wunderground v.1.15,2013-05-22 12:28:00,
2013-05-22 07:34:00,65.6,65.0,29.89,SE,134,3.0,10.0,98,0.27,,,1.74,0,Wunderground v.1.15,2013-05-22 12:34:00,
2013-05-22 07:39:00,65.6,65.0,29.88,SE,141,3.0,10.0,98,0.23,,,1.76,0,Wunderground v.1.15,2013-05-22 12:39:00,
2013-05-22 07:44:00,65.4,64.8,29.87,ENE,75,2.0,7.0,98,0.31,,,1.78,0,Wunderground v.1.15,2013-05-22 12:44:00,
2013-05-22 07:49:00,65.4,64.8,29.85,East,79,2.0,7.0,98,0.21,,,1.80,0,Wunderground v.1.15,2013-05-22 12:49:00,
2013-05-22 07:55:00,65.3,64.7,29.85,NNE,15,2.0,9.0,98,0.15,,,1.81,0,Wunderground v.1.15,2013-05-22 12:55:00,
2013-05-22 08:00:00,65.3,64.7,29.85,East,81,2.0,2.0,98,0.13,,,1.82,0,Wunderground v.1.15,2013-05-22 13:00:00,
2013-05-22 08:05:00,65.4,64.8,29.86,SE,133,1.0,4.0,98,0.07,,,1.82,0,Wunderground v.1.15,2013-05-22 13:05:00,
2013-05-22 08:10:00,65.3,64.7,29.86,SE,141,2.0,2.0,98,0.05,,,1.82,0,Wunderground v.1.15,2013-05-22 13:10:00,
2013-05-22 08:15:00,65.3,64.7,29.87,ESE,110,2.0,12.0,98,0.04,,,1.83,5,Wunderground v.1.15,2013-05-22 13:15:00,
2013-05-22 08:21:00,65.3,64.7,29.86,ESE,117,1.0,1.0,98,0.04,,,1.83,5,Wunderground v.1.15,2013-05-22 13:21:00,
2013-05-22 08:26:00,65.2,64.6,29.86,ESE,114,1.0,7.0,98,0.04,,,1.83,7,Wunderground v.1.15,2013-05-22 13:26:00,
2013-05-22 08:32:00,65.2,64.6,29.86,NNE,32,1.0,1.0,98,0.00,,,1.83,9,Wunderground v.1.15,2013-05-22 13:32:00,
2013-05-22 08:38:00,65.2,64.6,29.86,ENE,76,1.0,6.0,98,0.00,,,1.83,12,Wunderground v.1.15,2013-05-22 13:38:00,
2013-05-22 08:43:00,65.2,64.6,29.86,ESE,120,1.0,7.0,98,0.00,,,1.83,18,Wunderground v.1.15,2013-05-22 13:43:00,
2013-05-22 08:48:00,65.2,64.6,29.87,South,175,1.0,7.0,98,0.00,,,1.83,25,Wunderground v.1.15,2013-05-22 13:48:00,
2013-05-22 08:54:00,65.2,64.6,29.87,South,186,0.0,2.0,98,0.00,,,1.83,32,Wunderground v.1.15,2013-05-22 13:54:00,
2013-05-22 09:00:00,65.2,64.6,29.87,ESE,121,1.0,1.0,98,0.00,,,1.83,46,Wunderground v.1.15,2013-05-22 14:00:00,
2013-05-22 09:05:00,65.3,64.7,29.88,ESE,117,1.0,1.0,98,0.00,,,1.83,58,Wunderground v.1.15,2013-05-22 14:05:00,
2013-05-22 09:10:00,65.4,64.8,29.89,South,173,0.0,0.0,98,0.00,,,1.83,69,Wunderground v.1.15,2013-05-22 14:10:00,
2013-05-22 09:16:00,65.4,64.8,29.89,SW,215,0.0,0.0,98,0.00,,,1.83,74,Wunderground v.1.15,2013-05-22 14:16:00,
2013-05-22 09:21:00,65.5,64.9,29.90,South,175,0.0,0.0,98,0.00,,,1.83,83,Wunderground v.1.15,2013-05-22 14:21:00,
2013-05-22 09:26:00,65.6,65.0,29.90,South,175,0.0,0.0,98,0.00,,,1.83,97,Wunderground v.1.15,2013-05-22 14:26:00,
2013-05-22 09:31:00,65.7,65.1,29.90,SSE,156,0.0,0.0,98,0.00,,,1.83,107,Wunderground v.1.15,2013-05-22 14:31:00,
2013-05-22 09:37:00,65.7,65.1,29.89,SSE,154,0.0,0.0,98,0.00,,,1.83,114,Wunderground v.1.15,2013-05-22 14:37:00,
2013-05-22 09:42:00,65.8,65.2,29.90,SSE,154,0.0,0.0,98,0.00,,,1.83,118,Wunderground v.1.15,2013-05-22 14:42:00,
2013-05-22 09:47:00,65.8,65.2,29.91,SSE,154,0.0,0.0,98,0.00,,,1.83,128,Wunderground v.1.15,2013-05-22 14:47:00,
2013-05-22 09:53:00,65.9,65.3,29.91,South,183,0.0,2.0,98,0.00,,,1.83,142,Wunderground v.1.15,2013-05-22 14:53:00,
2013-05-22 09:58:00,66.0,65.4,29.91,WSW,254,0.0,2.0,98,0.00,,,1.83,144,Wunderground v.1.15,2013-05-22 14:58:00,
2013-05-22 10:03:00,66.2,65.6,29.91,WSW,254,0.0,0.0,98,0.00,,,1.83,163,Wunderground v.1.15,2013-05-22 15:03:00,
2013-05-22 10:09:00,66.3,65.7,29.91,West,259,0.0,0.0,98,0.00,,,1.83,174,Wunderground v.1.15,2013-05-22 15:09:00,
2013-05-22 10:14:00,66.4,65.8,29.90,WSW,254,0.0,0.0,98,0.00,,,1.83,193,Wunderground v.1.15,2013-05-22 15:14:00,
2013-05-22 10:19:00,66.5,65.9,29.90,WSW,254,0.0,0.0,98,0.00,,,1.83,218,Wunderground v.1.15,2013-05-22 15:19:00,
2013-05-22 10:24:00,66.6,66.0,29.91,WSW,252,0.0,0.0,98,0.00,,,1.83,236,Wunderground v.1.15,2013-05-22 15:24:00,
2013-05-22 10:30:00,66.6,66.0,29.92,WSW,252,0.0,0.0,98,0.00,,,1.83,216,Wunderground v.1.15,2013-05-22 15:30:00,
2013-05-22 10:35:00,66.8,65.9,29.92,WSW,252,0.0,0.0,97,0.00,,,1.83,237,Wunderground v.1.15,2013-05-22 15:35:00,
2013-05-22 10:40:00,67.1,66.5,29.92,WSW,252,0.0,0.0,98,0.00,,,1.83,229,Wunderground v.1.15,2013-05-22 15:40:00,
2013-05-22 10:45:00,67.3,66.4,29.92,WSW,246,0.0,2.0,97,0.00,,,1.83,207,Wunderground v.1.15,2013-05-22 15:45:00,
2013-05-22 10:50:00,67.1,66.2,29.92,WSW,251,0.0,0.0,97,0.00,,,1.83,121,Wunderground v.1.15,2013-05-22 15:50:00,
2013-05-22 10:56:00,67.0,65.8,29.92,WSW,251,0.0,0.0,96,0.00,,,1.83,104,Wunderground v.1.15,2013-05-22 15:56:00,
2013-05-22 11:01:00,67.0,65.8,29.92,WSW,251,0.0,0.0,96,0.00,,,1.83,93,Wunderground v.1.15,2013-05-22 16:01:00,
2013-05-22 11:06:00,67.1,65.9,29.92,WSW,251,0.0,0.0,96,0.00,,,1.83,81,Wunderground v.1.15,2013-05-22 16:06:00,
2013-05-22 11:11:00,67.1,65.9,29.92,WSW,251,0.0,0.0,96,0.00,,,1.83,116,Wunderground v.1.15,2013-05-22 16:11:00,
2013-05-22 11:16:00,67.3,66.1,29.92,WSW,251,0.0,0.0,96,0.00,,,1.83,257,Wunderground v.1.15,2013-05-22 16:16:00,
2013-05-22 11:22:00,67.4,66.2,29.92,WSW,251,0.0,0.0,96,0.00,,,1.83,294,Wunderground v.1.15,2013-05-22 16:22:00,
2013-05-22 11:28:00,67.6,66.4,29.92,WSW,251,0.0,0.0,96,0.00,,,1.83,334,Wunderground v.1.15,2013-05-22 16:28:00,
2013-05-22 11:33:00,67.9,66.7,29.93,WSW,251,0.0,0.0,96,0.00,,,1.83,309,Wunderground v.1.15,2013-05-22 16:33:00,
2013-05-22 11:39:00,68.3,67.1,29.93,WSW,251,0.0,0.0,96,0.00,,,1.83,410,Wunderground v.1.15,2013-05-22 16:39:00,
2013-05-22 11:44:00,68.5,67.0,29.93,WSW,251,0.0,0.0,95,0.00,,,0.00,578,Wunderground v.1.15,2013-05-22 16:44:00,
2013-05-22 11:50:00,68.8,67.0,29.93,WSW,251,0.0,0.0,94,0.00,,,0.00,573,Wunderground v.1.15,2013-05-22 16:50:00,
2013-05-22 11:55:00,69.1,67.3,29.93,WSW,251,0.0,3.0,94,0.00,,,0.00,448,Wunderground v.1.15,2013-05-22 16:55:00,
2013-05-22 12:01:00,69.5,67.4,29.93,WSW,250,0.0,0.0,93,0.00,,,0.00,267,Wunderground v.1.15,2013-05-22 17:01:00,
2013-05-22 12:07:00,69.6,67.2,29.93,WSW,246,0.0,3.0,92,0.00,,,0.00,431,Wunderground v.1.15,2013-05-22 17:07:00,
2013-05-22 12:12:00,69.6,67.2,29.92,WSW,246,0.0,0.0,92,0.00,,,0.00,635,Wunderground v.1.15,2013-05-22 17:12:00,
2013-05-22 12:17:00,70.0,67.6,29.92,WSW,245,0.0,0.0,92,0.00,,,0.00,668,Wunderground v.1.15,2013-05-22 17:17:00,
2013-05-22 12:23:00,70.3,66.9,29.92,WSW,237,1.0,5.0,89,0.00,,,0.00,786,Wunderground v.1.15,2013-05-22 17:23:00,
2013-05-22 12:29:00,70.9,67.5,29.92,SW,235,1.0,5.0,89,0.00,,,0.00,851,Wunderground v.1.15,2013-05-22 17:29:00,
2013-05-22 12:34:00,71.6,68.2,29.92,SSW,212,0.0,1.0,89,0.00,,,0.00,1032,Wunderground v.1.15,2013-05-22 17:34:00,
2013-05-22 12:39:00,72.4,68.3,29.92,SE,136,1.0,2.0,87,0.00,,,0.00,1051,Wunderground v.1.15,2013-05-22 17:39:00,
2013-05-22 12:44:00,72.8,67.3,29.92,SSW,198,1.0,1.0,83,0.00,,,0.00,504,Wunderground v.1.15,2013-05-22 17:44:00,
2013-05-22 12:50:00,73.1,68.0,29.91,SSE,160,0.0,0.0,84,0.00,,,0.00,397,Wunderground v.1.15,2013-05-22 17:50:00,
2013-05-22 12:55:00,73.3,68.5,29.91,SSW,208,0.0,0.0,85,0.00,,,0.00,1141,Wunderground v.1.15,2013-05-22 17:55:00,
2013-05-22 13:00:00,73.9,68.1,29.91,SSW,200,0.0,0.0,82,0.00,,,0.00,1053,Wunderground v.1.15,2013-05-22 18:00:00,
2013-05-22 13:05:00,74.4,68.5,29.91,SSW,196,0.0,4.0,82,0.00,,,0.00,1162,Wunderground v.1.15,2013-05-22 18:05:00,
2013-05-22 13:11:00,74.4,68.2,29.91,SW,219,1.0,1.0,81,0.00,,,0.00,381,Wunderground v.1.15,2013-05-22 18:11:00,
2013-05-22 13:17:00,73.7,67.5,29.91,SSE,158,1.0,1.0,81,0.00,,,0.00,297,Wunderground v.1.15,2013-05-22 18:17:00,
2013-05-22 13:22:00,73.2,68.1,29.91,WSW,244,1.0,1.0,84,0.00,,,0.00,132,Wunderground v.1.15,2013-05-22 18:22:00,
2013-05-22 13:28:00,72.8,68.4,29.91,SW,223,1.0,5.0,86,0.00,,,0.00,220,Wunderground v.1.15,2013-05-22 18:28:00,
2013-05-22 13:33:00,72.8,69.0,29.91,SSW,207,0.0,0.0,88,0.00,,,0.00,290,Wunderground v.1.15,2013-05-22 18:33:00,
2013-05-22 13:39:00,72.8,69.0,29.92,SSW,210,1.0,5.0,88,0.00,,,0.00,260,Wunderground v.1.15,2013-05-22 18:39:00,
2013-05-22 13:45:00,72.6,68.5,29.91,SSW,197,1.0,1.0,87,0.00,,,0.00,192,Wunderground v.1.15,2013-05-22 18:45:00,
2013-05-22 13:50:00,72.4,68.6,29.91,SW,231,1.0,1.0,88,0.00,,,0.00,364,Wunderground v.1.15,2013-05-22 18:50:00,
2013-05-22 13:57:00,72.5,68.7,29.90,WSW,250,0.0,4.0,88,0.00,,,0.00,438,Wunderground v.1.15,2013-05-22 18:57:00,
2013-05-22 14:03:00,73.0,69.2,29.90,West,278,0.0,2.0,88,0.00,,,0.00,1069,Wunderground v.1.15,2013-05-22 19:03:00,
2013-05-22 14:08:00,73.6,68.8,29.90,WSW,244,1.0,2.0,85,0.00,,,0.00,673,Wunderground v.1.15,2013-05-22 19:08:00,
2013-05-22 14:14:00,74.1,69.3,29.90,SW,229,1.0,1.0,85,0.00,,,0.00,401,Wunderground v.1.15,2013-05-22 19:14:00,
2013-05-22 14:20:00,74.2,68.7,29.89,WSW,239,1.0,1.0,83,0.00,,,0.00,306,Wunderground v.1.15,2013-05-22 19:20:00,
2013-05-22 14:26:00,74.4,68.5,29.89,West,266,1.0,6.0,82,0.00,,,0.00,471,Wunderground v.1.15,2013-05-22 19:26:00,
2013-05-22 14:31:00,75.1,68.5,29.89,WSW,249,0.0,0.0,80,0.00,,,0.00,947,Wunderground v.1.15,2013-05-22 19:31:00,
2013-05-22 14:36:00,75.8,68.1,29.88,WNW,298,0.0,7.0,77,0.00,,,0.00,933,Wunderground v.1.15,2013-05-22 19:36:00,
2013-05-22 14:42:00,76.1,67.6,29.89,West,259,1.0,1.0,75,0.00,,,0.00,1049,Wunderground v.1.15,2013-05-22 19:42:00,
2013-05-22 14:48:00,76.8,67.9,29.88,SW,234,1.0,1.0,74,0.00,,,0.00,366,Wunderground v.1.15,2013-05-22 19:48:00,
2013-05-22 14:53:00,76.7,68.2,29.88,WSW,245,1.0,5.0,75,0.00,,,0.00,355,Wunderground v.1.15,2013-05-22 19:53:00,
2013-05-22 14:58:00,76.6,67.7,29.88,SW,227,1.0,6.0,74,0.00,,,0.00,397,Wunderground v.1.15,2013-05-22 19:58:00,
2013-05-22 15:04:00,76.9,69.5,29.88,WNW,285,1.0,1.0,78,0.00,,,0.00,900,Wunderground v.1.15,2013-05-22 20:04:00,
2013-05-22 15:09:00,77.6,69.4,29.88,WSW,243,0.0,2.0,76,0.00,,,0.00,854,Wunderground v.1.15,2013-05-22 20:09:00,
2013-05-22 15:14:00,77.8,68.0,29.88,WSW,252,0.0,7.0,72,0.00,,,0.00,842,Wunderground v.1.15,2013-05-22 20:14:00,
2013-05-22 15:19:00,77.9,68.5,29.88,West,276,1.0,7.0,73,0.00,,,0.00,673,Wunderground v.1.15,2013-05-22 20:19:00,
2013-05-22 15:24:00,78.2,68.4,29.87,SSW,208,1.0,1.0,72,0.00,,,0.00,805,Wunderground v.1.15,2013-05-22 20:24:00,
2013-05-22 15:30:00,78.5,68.3,29.87,SW,229,1.0,1.0,71,0.00,,,0.00,800,Wunderground v.1.15,2013-05-22 20:30:00,
2013-05-22 15:35:00,78.7,67.7,29.87,WSW,242,1.0,7.0,69,0.00,,,0.00,788,Wunderground v.1.15,2013-05-22 20:35:00,
2013-05-22 15:40:00,78.7,67.2,29.87,SW,236,2.0,2.0,68,0.00,,,0.00,796,Wunderground v.1.15,2013-05-22 20:40:00,
2013-05-22 15:45:00,79.0,67.1,29.87,WSW,257,1.0,3.0,67,0.00,,,0.00,805,Wunderground v.1.15,2013-05-22 20:45:00,
2013-05-22 15:51:00,79.3,67.4,29.87,WSW,240,1.0,2.0,67,0.00,,,0.00,751,Wunderground v.1.15,2013-05-22 20:51:00,
2013-05-22 15:56:00,79.1,67.6,29.87,SW,225,1.0,4.0,68,0.00,,,0.00,330,Wunderground v.1.15,2013-05-22 20:56:00,
2013-05-22 16:02:00,79.3,68.7,29.87,SW,236,0.0,0.0,70,0.00,,,0.00,758,Wunderground v.1.15,2013-05-22 21:02:00,
2013-05-22 16:08:00,79.3,69.1,29.87,West,271,0.0,6.0,71,0.00,,,0.00,677,Wunderground v.1.15,2013-05-22 21:08:00,
2013-05-22 16:13:00,79.5,69.3,29.87,WSW,246,1.0,7.0,71,0.00,,,0.00,670,Wunderground v.1.15,2013-05-22 21:13:00,
2013-05-22 16:20:00,79.5,68.4,29.87,SW,232,2.0,2.0,69,0.00,,,0.00,633,Wunderground v.1.15,2013-05-22 21:20:00,
2013-05-22 16:31:00,79.9,70.1,29.87,South,183,0.0,1.0,72,0.00,,,0.00,608,Wunderground v.1.15,2013-05-22 21:31:00,
2013-05-22 16:39:00,79.7,69.5,29.87,SSE,156,1.0,3.0,71,0.00,,,0.00,578,Wunderground v.1.15,2013-05-22 21:39:00,
2013-05-22 16:44:00,79.4,69.2,29.87,South,177,2.0,5.0,71,0.00,,,0.00,563,Wunderground v.1.15,2013-05-22 21:44:00,
2013-05-22 16:53:00,79.5,69.7,29.87,SW,227,1.0,1.0,72,0.00,,,0.00,517,Wunderground v.1.15,2013-05-22 21:53:00,
2013-05-22 16:59:00,79.6,69.8,29.87,WSW,237,1.0,1.0,72,0.00,,,0.00,526,Wunderground v.1.15,2013-05-22 21:59:00,
2013-05-22 17:04:00,79.8,70.4,29.87,SSW,195,0.0,1.0,73,0.00,,,0.00,501,Wunderground v.1.15,2013-05-22 22:04:00,
2013-05-22 17:10:00,79.8,70.0,29.87,SW,236,1.0,1.0,72,0.00,,,0.00,482,Wunderground v.1.15,2013-05-22 22:10:00,
2013-05-22 17:15:00,79.9,70.5,29.87,West,277,1.0,6.0,73,0.00,,,0.00,457,Wunderground v.1.15,2013-05-22 22:15:00,
2013-05-22 17:20:00,79.6,69.8,29.87,WSW,240,2.0,2.0,72,0.00,,,0.00,438,Wunderground v.1.15,2013-05-22 22:20:00,
2013-05-22 17:25:00,79.6,70.6,29.87,SW,217,1.0,2.0,74,0.00,,,0.00,425,Wunderground v.1.15,2013-05-22 22:25:00,
2013-05-22 17:30:00,79.8,69.6,29.87,SW,215,1.0,3.0,71,0.00,,,0.00,374,Wunderground v.1.15,2013-05-22 22:30:00,
2013-05-22 17:36:00,79.4,70.4,29.87,SW,232,1.0,3.0,74,0.00,,,0.00,441,Wunderground v.1.15,2013-05-22 22:36:00,
2013-05-22 17:41:00,79.6,71.0,29.87,SW,227,0.0,1.0,75,0.00,,,0.00,373,Wunderground v.1.15,2013-05-22 22:41:00,
2013-05-22 17:47:00,79.5,70.5,29.87,SW,228,0.0,1.0,74,0.00,,,0.00,139,Wunderground v.1.15,2013-05-22 22:47:00,
2013-05-22 17:53:00,78.9,69.9,29.87,SW,228,0.0,1.0,74,0.00,,,0.00,128,Wunderground v.1.15,2013-05-22 22:53:00,
2013-05-22 17:58:00,78.7,70.1,29.88,WSW,240,0.0,3.0,75,0.00,,,0.00,294,Wunderground v.1.15,2013-05-22 22:58:00,
2013-05-22 18:03:00,78.6,70.4,29.88,WSW,240,0.0,0.0,76,0.00,,,0.00,176,Wunderground v.1.15,2013-05-22 23:03:00,
2013-05-22 18:09:00,78.5,70.7,29.87,SW,233,0.0,0.0,77,0.00,,,0.00,109,Wunderground v.1.15,2013-05-22 23:09:00,
2013-05-22 18:14:00,78.3,70.5,29.87,SW,233,0.0,0.0,77,0.00,,,0.00,83,Wunderground v.1.15,2013-05-22 23:14:00,
2013-05-22 18:19:00,78.1,71.1,29.88,SW,233,0.0,0.0,79,0.00,,,0.00,98,Wunderground v.1.15,2013-05-22 23:19:00,
2013-05-22 18:25:00,78.0,71.0,29.88,SW,233,0.0,0.0,79,0.00,,,0.00,100,Wunderground v.1.15,2013-05-22 23:25:00,
2013-05-22 18:30:00,77.9,71.6,29.88,SW,233,0.0,0.0,81,0.00,,,0.00,90,Wunderground v.1.15,2013-05-22 23:30:00,
2013-05-22 18:35:00,77.8,71.5,29.88,SW,233,0.0,0.0,81,0.00,,,0.00,98,Wunderground v.1.15,2013-05-22 23:35:00,
2013-05-22 18:40:00,77.7,71.8,29.87,SW,233,0.0,0.0,82,0.00,,,0.00,97,Wunderground v.1.15,2013-05-22 23:40:00,
2013-05-22 18:46:00,77.5,71.6,29.88,SW,233,0.0,0.0,82,0.00,,,0.00,98,Wunderground v.1.15,2013-05-22 23:46:00,
2013-05-22 18:52:00,77.3,71.4,29.88,SW,233,0.0,0.0,82,0.00,,,0.00,74,Wunderground v.1.15,2013-05-22 23:52:00,
2013-05-22 18:57:00,77.1,71.9,29.87,SW,232,0.0,0.0,84,0.00,,,0.00,67,Wunderground v.1.15,2013-05-22 23:57:00,
2013-05-22 19:02:00,76.9,71.3,29.87,SW,232,0.0,0.0,83,0.00,,,0.00,120,Wunderground v.1.15,2013-05-23 00:02:00,
2013-05-22 19:07:00,76.9,71.7,29.88,SW,232,0.0,0.0,84,0.00,,,0.00,116,Wunderground v.1.15,2013-05-23 00:07:00,
2013-05-22 19:13:00,76.8,71.2,29.88,SW,232,0.0,0.0,83,0.00,,,0.00,79,Wunderground v.1.15,2013-05-23 00:13:00,
2013-05-22 19:18:00,76.7,71.5,29.88,SW,232,0.0,0.0,84,0.00,,,0.00,51,Wunderground v.1.15,2013-05-23 00:18:00,
2013-05-22 19:23:00,76.9,71.7,29.88,SW,232,0.0,0.0,84,0.00,,,0.00,44,Wunderground v.1.15,2013-05-23 00:23:00,
2013-05-22 19:28:00,76.9,71.3,29.88,SW,232,0.0,0.0,83,0.00,,,0.00,32,Wunderground v.1.15,2013-05-23 00:28:00,
2013-05-22 19:34:00,76.8,71.6,29.89,WSW,251,0.0,0.0,84,0.00,,,0.00,25,Wunderground v.1.15,2013-05-23 00:34:00,
2013-05-22 19:39:00,76.5,71.7,29.89,WSW,250,0.0,0.0,85,0.00,,,0.00,21,Wunderground v.1.15,2013-05-23 00:39:00,
2013-05-22 19:44:00,76.2,71.4,29.89,South,174,0.0,0.0,85,0.00,,,0.00,14,Wunderground v.1.15,2013-05-23 00:44:00,
2013-05-22 19:50:00,76.0,71.5,29.89,South,174,0.0,0.0,86,0.00,,,0.00,9,Wunderground v.1.15,2013-05-23 00:50:00,
2013-05-22 19:56:00,75.7,71.2,29.89,South,174,0.0,0.0,86,0.00,,,0.00,0,Wunderground v.1.15,2013-05-23 00:56:00,
2013-05-22 20:02:00,75.4,70.9,29.89,South,174,0.0,0.0,86,0.00,,,0.00,0,Wunderground v.1.15,2013-05-23 01:02:00,
2013-05-22 20:08:00,75.0,70.9,29.89,South,174,0.0,0.0,87,0.00,,,0.00,0,Wunderground v.1.15,2013-05-23 01:08:00,
2013-05-22 20:14:00,74.6,70.8,29.90,South,174,0.0,0.0,88,0.00,,,0.00,0,Wunderground v.1.15,2013-05-23 01:14:00,
2013-05-22 20:19:00,74.3,70.5,29.90,South,174,0.0,0.0,88,0.00,,,0.00,0,Wunderground v.1.15,2013-05-23 01:19:00,
2013-05-22 20:26:00,73.9,70.5,29.90,South,174,0.0,0.0,89,0.00,,,0.00,0,Wunderground v.1.15,2013-05-23 01:26:00,
2013-05-22 20:32:00,73.5,70.4,29.90,South,174,0.0,0.0,90,0.00,,,0.00,0,Wunderground v.1.15,2013-05-23 01:32:00,
2013-05-22 20:37:00,73.2,70.1,29.90,South,174,0.0,0.0,90,0.00,,,0.00,0,Wunderground v.1.15,2013-05-23 01:37:00,
2013-05-22 20:43:00,72.9,70.1,29.90,South,174,0.0,0.0,91,0.00,,,0.00,0,Wunderground v.1.15,2013-05-23 01:43:00,
2013-05-22 20:49:00,72.7,70.2,29.90,South,174,0.0,0.0,92,0.00,,,0.00,0,Wunderground v.1.15,2013-05-23 01:49:00,
2013-05-22 20:54:00,72.5,70.0,29.90,South,174,0.0,0.0,92,0.00,,,0.00,0,Wunderground v.1.15,2013-05-23 01:54:00,
2013-05-22 21:00:00,72.3,70.2,29.90,South,174,0.0,0.0,93,0.00,,,0.00,0,Wunderground v.1.15,2013-05-23 02:00:00,
2013-05-22 21:06:00,72.1,70.0,29.91,South,174,0.0,0.0,93,0.00,,,0.00,0,Wunderground v.1.15,2013-05-23 02:06:00,
2013-05-22 21:12:00,71.9,69.8,29.91,South,174,0.0,0.0,93,0.00,,,0.00,0,Wunderground v.1.15,2013-05-23 02:12:00,
2013-05-22 21:18:00,71.7,69.9,29.91,South,174,0.0,0.0,94,0.00,,,0.00,0,Wunderground v.1.15,2013-05-23 02:18:00,
2013-05-22 21:24:00,71.5,69.7,29.91,South,174,0.0,0.0,94,0.00,,,0.00,0,Wunderground v.1.15,2013-05-23 02:24:00,
2013-05-22 21:29:00,71.3,69.5,29.91,South,174,0.0,0.0,94,0.00,,,0.00,0,Wunderground v.1.15,2013-05-23 02:29:00,
2013-05-22 21:34:00,71.2,69.4,29.91,South,174,0.0,0.0,94,0.00,,,0.00,0,Wunderground v.1.15,2013-05-23 02:34:00,
2013-05-22 21:39:00,71.2,69.7,29.92,South,174,0.0,0.0,95,0.00,,,0.00,0,Wunderground v.1.15,2013-05-23 02:39:00,
2013-05-22 21:45:00,71.1,69.6,29.92,South,174,0.0,0.0,95,0.00,,,0.00,0,Wunderground v.1.15,2013-05-23 02:45:00,
2013-05-22 21:50:00,71.0,69.5,29.92,South,174,0.0,0.0,95,0.00,,,0.00,0,Wunderground v.1.15,2013-05-23 02:50:00,
2013-05-22 21:55:00,70.9,69.4,29.92,South,174,0.0,0.0,95,0.00,,,0.00,0,Wunderground v.1.15,2013-05-23 02:55:00,
2013-05-22 22:00:00,70.8,69.3,29.92,South,174,0.0,0.0,95,0.00,,,0.00,0,Wunderground v.1.15,2013-05-23 03:00:00,
2013-05-22 22:05:00,70.8,69.6,29.92,South,174,0.0,0.0,96,0.00,,,0.00,0,Wunderground v.1.15,2013-05-23 03:05:00,
2013-05-22 22:11:00,70.8,69.6,29.92,South,174,0.0,0.0,96,0.00,,,0.00,0,Wunderground v.1.15,2013-05-23 03:11:00,
2013-05-22 22:16:00,70.8,69.6,29.92,South,174,0.0,0.0,96,0.00,,,0.00,0,Wunderground v.1.15,2013-05-23 03:16:00,
2013-05-22 22:21:00,70.8,69.6,29.92,South,174,0.0,0.0,96,0.00,,,0.00,0,Wunderground v.1.15,2013-05-23 03:21:00,
2013-05-22 22:27:00,70.7,69.5,29.92,South,174,0.0,0.0,96,0.00,,,0.00,0,Wunderground v.1.15,2013-05-23 03:27:00,
2013-05-22 22:32:00,70.7,69.5,29.92,South,174,0.0,0.0,96,0.00,,,0.00,0,Wunderground v.1.15,2013-05-23 03:32:00,
2013-05-22 22:38:00,70.6,69.4,29.92,South,174,0.0,0.0,96,0.00,,,0.00,0,Wunderground v.1.15,2013-05-23 03:38:00,
2013-05-22 22:44:00,70.5,69.3,29.93,South,174,0.0,0.0,96,0.00,,,0.00,0,Wunderground v.1.15,2013-05-23 03:44:00,
2013-05-22 22:49:00,70.5,69.3,29.93,South,174,0.0,0.0,96,0.00,,,0.00,0,Wunderground v.1.15,2013-05-23 03:49:00,
2013-05-22 22:54:00,70.5,69.3,29.93,South,174,0.0,0.0,96,0.00,,,0.00,0,Wunderground v.1.15,2013-05-23 03:54:00,
2013-05-22 23:00:00,70.5,69.3,29.93,South,174,0.0,0.0,96,0.00,,,0.00,0,Wunderground v.1.15,2013-05-23 04:00:00,
2013-05-22 23:01:00,70.5,69.3,29.93,South,174,0.0,0.0,96,0.00,,,0.00,0,Wunderground v.1.15,2013-05-23 04:01:00,
2013-05-22 23:04:00,70.5,69.3,29.93,South,174,0.0,0.0,96,0.00,,,0.00,0,Wunderground v.1.15,2013-05-23 04:04:00,
2013-05-22 23:06:00,70.5,69.3,29.93,South,174,0.0,0.0,96,0.00,,,0.00,0,Wunderground v.1.15,2013-05-23 04:06:00,
2013-05-22 23:08:00,70.5,69.3,29.93,South,174,0.0,0.0,96,0.00,,,0.00,0,Wunderground v.1.15,2013-05-23 04:08:00,
2013-05-22 23:10:00,70.5,69.3,29.93,South,174,0.0,0.0,96,0.00,,,0.00,0,Wunderground v.1.15,2013-05-23 04:10:00,
2013-05-22 23:15:00,70.5,69.3,29.93,South,174,0.0,0.0,96,0.00,,,0.00,0,Wunderground v.1.15,2013-05-23 04:15:00,
2013-05-22 23:20:00,70.4,69.2,29.93,South,174,0.0,0.0,96,0.00,,,0.00,0,Wunderground v.1.15,2013-05-23 04:20:00,
2013-05-22 23:25:00,70.4,69.2,29.93,South,174,0.0,0.0,96,0.00,,,0.00,0,Wunderground v.1.15,2013-05-23 04:25:00,
2013-05-22 23:31:00,70.4,69.5,29.93,South,174,0.0,0.0,97,0.00,,,0.00,0,Wunderground v.1.15,2013-05-23 04:31:00,
2013-05-22 23:45:00,70.3,69.4,29.93,South,174,0.0,1.0,97,0.00,,,0.00,0,Wunderground v.1.15,2013-05-23 04:45:00,
2013-05-22 23:51:00,70.3,69.1,29.93,South,174,0.0,0.0,96,0.00,,,0.00,0,Wunderground v.1.15,2013-05-23 04:51:00,
2013-05-22 23:56:00,70.2,69.0,29.93,South,174,0.0,0.0,96,0.00,,,0.00,0,Wunderground v.1.15,2013-05-23 04:56:00,